Time;durP1;ratioP1;P1;durP2;ratioP2;P2;SDS_P1;SDS_P2;PMS_P1;PMS_P2;Temp;Humidity;BMP_temperature;BMP_pressure;BME280_temperature;BME280_humidity;BME280_pressure;Samples;Min_cycle;Max_cycle;Signal;HPM_P1;HPM_P2
2023/09/06 00:01:43;;;;;;;5.77;3.40;;;18.30;97.60;;;;;;20830169;28;20659;-70
2023/09/06 00:11:45;;;;;;;13.33;3.60;;;18.20;97.90;;;;;;20829711;28;20236;-70
2023/09/06 00:21:49;;;;;;;3.53;3.20;;;18.20;98.00;;;;;;20829331;28;20262;-70
2023/09/06 00:31:51;;;;;;;6.63;3.60;;;18.00;98.10;;;;;;20829442;28;20702;-70
2023/09/06 00:41:52;;;;;;;5.80;3.40;;;17.90;98.50;;;;;;20829234;28;20209;-74
2023/09/06 00:51:54;;;;;;;4.40;3.10;;;17.80;98.50;;;;;;20826420;28;20233;-70
2023/09/06 01:01:56;;;;;;;4.27;3.40;;;17.70;98.60;;;;;;20761308;28;20263;-71
2023/09/06 01:11:59;;;;;;;11.83;3.60;;;17.60;98.80;;;;;;20761071;28;20229;-70
2023/09/06 01:22:41;;;;;;;15.20;3.47;;;17.50;98.90;;;;;;20759918;28;20671;-70
2023/09/06 01:32:42;;;;;;;5.00;3.30;;;17.30;99.10;;;;;;20756743;28;20242;-70
2023/09/06 01:42:45;;;;;;;5.30;3.50;;;17.30;99.40;;;;;;20758312;28;20709;-70
2023/09/06 01:52:47;;;;;;;4.77;3.43;;;17.30;99.40;;;;;;20731133;28;20676;-70
2023/09/06 02:02:50;;;;;;;7.23;3.70;;;17.20;99.60;;;;;;20693731;28;20210;-70
2023/09/06 02:12:52;;;;;;;4.53;3.30;;;17.00;99.60;;;;;;20674939;28;20352;-70
2023/09/06 02:22:56;;;;;;;5.43;3.80;;;16.90;99.90;;;;;;20674507;28;20618;-69
2023/09/06 02:32:57;;;;;;;5.80;3.43;;;17.00;99.90;;;;;;20673309;28;20246;-70
2023/09/06 02:42:59;;;;;;;6.03;3.70;;;16.80;99.90;;;;;;20672485;28;20208;-70
2023/09/06 02:53:03;;;;;;;7.63;4.00;;;16.60;99.90;;;;;;20732772;28;20293;-70
2023/09/06 03:03:07;;;;;;;6.00;3.97;;;16.60;99.90;;;;;;20833723;28;20289;-71
2023/09/06 03:13:09;;;;;;;6.37;3.57;;;16.60;99.90;;;;;;20832319;28;20322;-70
2023/09/06 03:23:19;;;;;;;8.63;4.00;;;16.40;99.90;;;;;;20832869;28;20204;-71
2023/09/06 03:33:22;;;;;;;6.47;3.53;;;16.40;99.90;;;;;;20831745;28;20246;-70
2023/09/06 03:43:30;;;;;;;7.17;3.80;;;16.50;99.90;;;;;;20831041;28;20305;-70
2023/09/06 03:53:37;;;;;;;7.03;4.17;;;16.40;99.90;;;;;;20809047;28;20590;-69
2023/09/06 04:03:40;;;;;;;6.07;3.97;;;16.30;99.90;;;;;;20731378;28;20213;-69
2023/09/06 04:13:43;;;;;;;6.63;4.03;;;16.20;99.90;;;;;;20752808;28;20235;-70
2023/09/06 04:23:45;;;;;;;8.70;5.40;;;16.10;99.90;;;;;;20781198;28;20259;-70
2023/09/06 04:33:47;;;;;;;8.83;4.57;;;16.10;99.90;;;;;;20763580;28;20586;-70
2023/09/06 04:43:48;;;;;;;5.23;4.03;;;15.90;99.90;;;;;;20773674;28;20650;-70
2023/09/06 04:53:50;;;;;;;19.23;4.73;;;15.80;99.90;;;;;;20785939;28;20254;-70
2023/09/06 05:03:52;;;;;;;12.80;3.90;;;15.80;99.90;;;;;;20825808;28;20729;-70
2023/09/06 05:13:54;;;;;;;11.70;4.73;;;15.90;99.90;;;;;;20842456;28;20350;-71
2023/09/06 05:23:55;;;;;;;11.07;4.63;;;15.80;99.90;;;;;;20837538;28;20201;-71
2023/09/06 05:33:57;;;;;;;10.57;4.63;;;15.80;99.90;;;;;;20788412;28;20707;-70
2023/09/06 05:43:59;;;;;;;12.77;4.73;;;15.80;99.90;;;;;;20758216;28;20618;-71
2023/09/06 05:54:01;;;;;;;16.83;5.30;;;15.90;99.90;;;;;;20788894;28;20751;-71
2023/09/06 06:04:03;;;;;;;13.93;5.13;;;16.20;99.90;;;;;;20836489;28;20247;-71
2023/09/06 06:14:04;;;;;;;20.53;6.80;;;16.40;99.90;;;;;;20743486;28;20277;-72
2023/09/06 06:24:12;;;;;;;6.87;5.00;;;16.50;99.90;;;;;;20755342;28;20627;-72
2023/09/06 06:34:18;;;;;;;9.70;5.20;;;16.80;99.90;;;;;;20754182;28;20233;-74
2023/09/06 06:44:22;;;;;;;10.43;5.80;;;16.90;99.90;;;;;;20753755;28;20685;-72
2023/09/06 06:54:25;;;;;;;9.83;6.30;;;16.90;99.90;;;;;;20752773;28;20248;-72
2023/09/06 07:04:26;;;;;;;11.40;6.17;;;17.10;99.90;;;;;;20761120;28;20213;-72
2023/09/06 07:14:28;;;;;;;10.80;6.70;;;17.20;99.90;;;;;;20767486;28;20570;-72
2023/09/06 07:24:30;;;;;;;12.07;6.80;;;17.50;99.90;;;;;;20750675;28;20213;-72
2023/09/06 07:34:32;;;;;;;19.07;6.30;;;17.90;99.90;;;;;;20760791;28;20522;-72
2023/09/06 07:44:35;;;;;;;12.23;6.77;;;18.20;99.90;;;;;;20760293;28;20285;-72
2023/09/06 07:54:37;;;;;;;14.43;6.60;;;18.50;99.80;;;;;;20779423;28;20244;-72
2023/09/06 08:04:39;;;;;;;17.87;7.10;;;18.80;99.50;;;;;;20830148;28;20209;-72
2023/09/06 08:14:42;;;;;;;11.13;6.57;;;19.10;98.90;;;;;;20829530;28;20232;-72
2023/09/06 08:24:44;;;;;;;10.30;6.07;;;19.40;98.40;;;;;;20829484;28;20657;-73
2023/09/06 08:34:45;;;;;;;12.77;6.07;;;19.70;97.80;;;;;;20828638;28;20236;-73
2023/09/06 08:44:49;;;;;;;14.30;5.57;;;20.10;97.30;;;;;;20782625;28;20212;-72
2023/09/06 08:54:51;;;;;;;23.63;5.70;;;20.40;96.60;;;;;;20778662;28;20241;-72
2023/09/06 09:04:53;;;;;;;8.23;4.80;;;20.70;95.90;;;;;;20827827;28;20216;-73
2023/09/06 09:15:10;;;;;;;7.30;4.63;;;21.10;95.70;;;;;;20837306;28;20228;-72
2023/09/06 09:25:14;;;;;;;5.17;4.03;;;21.40;94.50;;;;;;20841904;28;20216;-73
2023/09/06 09:35:16;;;;;;;5.50;3.80;;;21.80;93.20;;;;;;20840673;28;20714;-73
2023/09/06 09:45:18;;;;;;;5.23;4.30;;;22.00;91.80;;;;;;20839829;28;20572;-73
2023/09/06 09:55:25;;;;;;;7.80;3.87;;;22.20;90.50;;;;;;20808080;28;20244;-73
2023/09/06 10:05:29;;;;;;;4.00;3.60;;;22.50;88.60;;;;;;20838643;28;20212;-73
2023/09/06 10:15:33;;;;;;;5.03;4.07;;;22.70;85.90;;;;;;20837374;28;20734;-72
2023/09/06 10:25:43;;;;;;;6.57;3.67;;;23.00;82.80;;;;;;20836765;28;20236;-72
2023/09/06 10:35:45;;;;;;;5.60;3.47;;;23.30;79.50;;;;;;20836404;28;20303;-72
2023/09/06 10:45:56;;;;;;;4.73;3.70;;;23.50;77.10;;;;;;20821512;28;20675;-73
2023/09/06 10:55:59;;;;;;;7.63;3.40;;;23.70;75.20;;;;;;20793472;28;20695;-71
2023/09/06 11:06:04;;;;;;;6.77;3.30;;;23.90;73.40;;;;;;20831860;28;20209;-72
2023/09/06 11:16:12;;;;;;;10.70;2.90;;;24.20;72.00;;;;;;20831496;28;20240;-72
2023/09/06 11:26:15;;;;;;;7.00;3.33;;;24.40;69.70;;;;;;20832318;28;20212;-73
2023/09/06 11:36:17;;;;;;;5.10;3.00;;;24.50;67.30;;;;;;20831334;28;20243;-72
2023/09/06 11:46:21;;;;;;;5.37;3.47;;;24.80;66.30;;;;;;20832376;28;20288;-72
2023/09/06 11:56:29;;;;;;;3.50;3.10;;;25.10;64.50;;;;;;20796519;28;20245;-72
2023/09/06 12:06:35;;;;;;;4.80;3.35;;;;;;;;;;20731525;28;20656;-73
2023/09/06 12:16:38;;;;;;;5.80;3.10;;;;;;;;;;20747319;28;20240;-73
2023/09/06 12:26:41;;;;;;;5.93;3.30;;;;;;;;;;20747055;28;20217;-73
2023/09/06 12:36:43;;;;;;;8.20;3.20;;;;;;;;;;20728708;28;20276;-72
2023/09/06 12:46:45;;;;;;;3.20;2.90;;;;;;;;;;20752906;28;20288;-73
2023/09/06 12:56:47;;;;;;;4.45;2.90;;;;;;;;;;20755006;28;20244;-74
2023/09/06 13:06:49;;;;;;;6.75;3.35;;;;;;;;;;20761219;28;20213;-73
2023/09/06 13:16:52;;;;;;;5.75;3.10;;;;;;;;;;20760111;28;20233;-73
2023/09/06 13:26:54;;;;;;;3.10;2.80;;;;;;;;;;20741837;28;20213;-73
2023/09/06 13:36:56;;;;;;;4.15;3.30;;;;;;;;;;20759432;28;20241;-73
2023/09/06 13:46:58;;;;;;;4.07;3.67;;;;;;;;;;20758025;28;20215;-73
2023/09/06 13:57:00;;;;;;;3.00;2.70;;;;;;;;;;20742233;28;20734;-74
2023/09/06 14:07:02;;;;;;;5.05;2.85;;;;;;;;;;20764321;28;20299;-73
2023/09/06 14:17:05;;;;;;;4.60;2.95;;;;;;;;;;20755345;28;20236;-74
2023/09/06 14:27:07;;;;;;;11.55;6.38;;;;;;;;;;20754586;28;20213;-74
2023/09/06 14:37:08;;;;;;;2.97;2.40;;;25.40;63.00;;;;;;20754682;28;20241;-74
2023/09/06 14:47:11;;;;;;;6.85;2.67;;;32.10;45.50;;;;;;20753770;28;20209;-75
2023/09/06 14:57:13;;;;;;;4.35;2.40;;;31.20;44.70;;;;;;20763642;28;20675;-74
2023/09/06 15:07:15;;;;;;;3.08;2.78;;;32.10;43.10;;;;;;20751359;28;20612;-74
2023/09/06 15:17:22;;;;;;;2.85;2.28;;;31.50;42.50;;;;;;20751490;28;20233;-73
2023/09/06 15:27:23;;;;;;;3.10;2.80;;;32.20;41.40;;;;;;20752087;28;20209;-72
2023/09/06 15:37:26;;;;;;;4.22;2.35;;;30.90;41.70;;;;;;20750500;28;20298;-74
2023/09/06 15:47:28;;;;;;;4.63;3.35;;;29.80;42.50;;;;;;20749644;28;20209;-73
2023/09/06 15:57:30;;;;;;;4.78;2.60;;;29.10;43.40;;;;;;20748589;28;20291;-73
2023/09/06 16:07:35;;;;;;;3.30;2.70;;;28.60;44.30;;;;;;20759318;28;20214;-73
2023/09/06 16:17:37;;;;;;;3.58;2.50;;;;;;;;;;20748068;28;20247;-72
2023/09/06 16:27:39;;;;;;;3.88;2.60;;;28.30;45.70;;;;;;20764468;28;20668;-73
2023/09/06 16:37:41;;;;;;;5.97;3.30;;;28.60;46.90;;;;;;20764195;28;20233;-73
2023/09/06 16:47:44;;;;;;;7.22;2.30;;;29.70;45.40;;;;;;20762805;28;20252;-72
2023/09/06 16:57:50;;;;;;;3.45;2.70;;;28.60;46.70;;;;;;20762154;28;20298;-73
2023/09/06 17:07:53;;;;;;;4.07;2.80;;;28.00;46.70;;;;;;20773176;28;20213;-73
2023/09/06 17:17:54;;;;;;;15.30;9.10;;;27.50;46.90;;;;;;20743136;28;20233;-73
2023/09/06 17:27:56;;;;;;;8.80;6.03;;;27.20;47.50;;;;;;20759904;28;20205;-72
2023/09/06 17:37:59;;;;;;;5.75;3.03;;;26.90;48.30;;;;;;20740807;28;20233;-73
2023/09/06 17:48:11;;;;;;;7.07;3.03;;;26.60;49.60;;;;;;20758168;28;20779;-73
2023/09/06 17:58:16;;;;;;;4.35;3.30;;;26.20;50.90;;;;;;20757314;28;20245;-72
2023/09/06 18:08:18;;;;;;;5.28;3.33;;;25.80;52.20;;;;;;20768181;28;20695;-73
2023/09/06 18:18:20;;;;;;;4.17;3.20;;;25.50;53.90;;;;;;20755788;28;20328;-75
2023/09/06 18:28:22;;;;;;;5.73;3.00;;;25.20;54.20;;;;;;20737759;28;20615;-66
2023/09/06 18:38:26;;;;;;;6.87;4.63;;;24.90;55.40;;;;;;20754635;28;20271;-63
2023/09/06 18:48:28;;;;;;;6.60;3.57;;;24.60;57.10;;;;;;20826227;28;20236;-64
2023/09/06 18:58:35;;;;;;;10.63;3.20;;;24.30;58.00;;;;;;20834584;28;20244;-68
2023/09/06 19:08:38;;;;;;;5.77;3.20;;;24.00;59.10;;;;;;20833923;28;20209;-66
2023/09/06 19:18:40;;;;;;;7.23;3.60;;;23.90;59.80;;;;;;20815391;28;20275;-66
2023/09/06 19:28:41;;;;;;;6.83;2.97;;;23.50;61.70;;;;;;20784391;28;20215;-66
2023/09/06 19:38:43;;;;;;;5.97;3.00;;;23.20;64.00;;;;;;20738207;28;20247;-67
2023/09/06 19:48:45;;;;;;;11.47;3.70;;;22.90;73.30;;;;;;20760212;28;20295;-66
2023/09/06 19:59:06;;;;;;;7.90;3.73;;;22.60;73.50;;;;;;20777737;28;20244;-68
2023/09/06 20:09:08;;;;;;;6.30;4.13;;;22.80;73.30;;;;;;20784189;28;20292;-68
2023/09/06 20:19:10;;;;;;;12.73;3.40;;;22.30;68.70;;;;;;20786535;28;20264;-68
2023/09/06 20:29:15;;;;;;;8.60;3.60;;;22.10;69.70;;;;;;20801274;28;20227;-68
2023/09/06 20:39:17;;;;;;;7.33;3.97;;;22.00;71.40;;;;;;20780322;28;20584;-67
2023/09/06 20:49:18;;;;;;;8.30;3.90;;;21.90;72.40;;;;;;20757820;28;20272;-67
2023/09/06 20:59:20;;;;;;;8.30;3.77;;;21.60;74.40;;;;;;20746694;28;20270;-66
2023/09/06 21:09:22;;;;;;;5.90;3.63;;;21.10;79.30;;;;;;20755241;28;20213;-68
2023/09/06 21:19:28;;;;;;;10.83;4.13;;;21.00;81.20;;;;;;20760828;28;20233;-66
2023/09/06 21:29:30;;;;;;;7.93;4.60;;;20.80;84.30;;;;;;20742680;28;20634;-67
2023/09/06 21:39:32;;;;;;;6.37;4.43;;;20.80;84.50;;;;;;20759289;28;20237;-66
2023/09/06 21:49:34;;;;;;;7.90;4.37;;;20.60;88.00;;;;;;20780108;28;20700;-67
2023/09/06 21:59:36;;;;;;;6.47;4.00;;;20.30;89.80;;;;;;20757620;28;20239;-67
2023/09/06 22:09:37;;;;;;;9.17;3.80;;;20.40;90.20;;;;;;20755542;28;20202;-73
2023/09/06 22:19:39;;;;;;;7.67;4.03;;;20.10;90.90;;;;;;20757474;28;20593;-73
2023/09/06 22:29:41;;;;;;;7.77;3.60;;;20.00;91.60;;;;;;20755904;28;20575;-72
2023/09/06 22:39:43;;;;;;;5.63;3.70;;;19.80;92.10;;;;;;20754435;28;20236;-73
2023/09/06 22:49:45;;;;;;;7.53;3.90;;;19.60;92.60;;;;;;20754170;28;20332;-72
2023/09/06 22:59:46;;;;;;;8.80;4.00;;;19.60;93.20;;;;;;20752835;28;20237;-72
2023/09/06 23:09:48;;;;;;;7.73;3.93;;;19.60;93.40;;;;;;20752183;28;20210;-72
2023/09/06 23:19:54;;;;;;;5.47;4.30;;;19.30;94.00;;;;;;20751944;28;20279;-73
2023/09/06 23:29:58;;;;;;;6.40;4.20;;;19.20;94.40;;;;;;20750053;28;20211;-73
2023/09/06 23:40:09;;;;;;;6.17;4.00;;;19.10;94.70;;;;;;20750235;28;20323;-74
2023/09/06 23:50:11;;;;;;;8.27;4.00;;;18.90;95.00;;;;;;20749710;28;20229;-73
